createdAt,value
2023-12-29T00:01:09.018Z,8.40
2023-12-29T00:03:37.435Z,8.30
2023-12-29T00:06:04.995Z,8.30
2023-12-29T00:08:32.755Z,8.20
2023-12-29T00:11:00.610Z,8.10
2023-12-29T00:13:27.688Z,8.10
2023-12-29T00:15:55.896Z,8.10
2023-12-29T00:18:26.040Z,8.00
2023-12-29T00:21:06.014Z,7.90
2023-12-29T00:23:35.017Z,7.90
2023-12-29T00:26:02.277Z,7.90
2023-12-29T00:28:29.380Z,7.90
2023-12-29T00:31:01.475Z,7.80
2023-12-29T00:33:31.383Z,7.70
2023-12-29T00:35:58.990Z,7.70
2023-12-29T00:38:31.947Z,7.60
2023-12-29T00:40:58.982Z,7.70
2023-12-29T00:43:25.927Z,7.60
2023-12-29T00:45:53.003Z,7.70
2023-12-29T00:48:20.153Z,7.70
2023-12-29T00:50:47.412Z,7.80
2023-12-29T00:53:14.419Z,7.80
2023-12-29T00:55:41.668Z,7.80
2023-12-29T00:58:09.438Z,7.80
2023-12-29T01:00:36.743Z,7.70
2023-12-29T01:03:03.932Z,7.70
2023-12-29T01:05:31.128Z,7.70
2023-12-29T01:07:58.700Z,7.60
2023-12-29T01:10:26.017Z,7.60
2023-12-29T01:12:53.042Z,7.50
2023-12-29T01:15:20.118Z,7.50
2023-12-29T01:17:47.349Z,7.40
2023-12-29T01:20:14.634Z,7.40
2023-12-29T01:22:42.143Z,7.40
2023-12-29T01:25:09.419Z,7.40
2023-12-29T01:27:36.736Z,7.40
2023-12-29T01:30:04.104Z,7.40
2023-12-29T01:32:31.216Z,7.40
2023-12-29T01:34:58.365Z,7.40
2023-12-29T01:37:25.545Z,7.30
2023-12-29T01:39:52.596Z,7.30
2023-12-29T01:42:19.840Z,7.20
2023-12-29T01:44:48.348Z,7.20
2023-12-29T01:47:17.616Z,7.20
2023-12-29T01:49:49.810Z,7.20
2023-12-29T01:52:21.052Z,7.20
2023-12-29T01:54:50.818Z,7.20
2023-12-29T01:57:18.020Z,7.20
2023-12-29T01:59:46.641Z,7.20
2023-12-29T02:02:14.072Z,7.10
2023-12-29T02:04:42.586Z,7.10
2023-12-29T02:07:10.343Z,7.20
2023-12-29T02:09:37.936Z,7.30
2023-12-29T02:12:05.500Z,7.30
2023-12-29T02:14:32.759Z,7.20
2023-12-29T02:17:19.353Z,7.20
2023-12-29T02:19:50.471Z,7.10
2023-12-29T02:22:17.563Z,7.10
2023-12-29T02:24:51.193Z,7.10
2023-12-29T02:27:37.779Z,7.10
2023-12-29T02:30:20.026Z,7.30
2023-12-29T02:32:48.959Z,7.50
2023-12-29T02:35:21.364Z,7.40
2023-12-29T02:37:49.478Z,7.40
2023-12-29T02:40:17.579Z,7.40
2023-12-29T02:42:49.030Z,7.50
2023-12-29T02:45:16.940Z,7.60
2023-12-29T02:47:45.126Z,7.70
2023-12-29T02:50:12.789Z,7.90
2023-12-29T02:52:39.857Z,8.00
2023-12-29T02:55:07.160Z,8.00
2023-12-29T02:57:34.205Z,8.00
2023-12-29T03:00:05.324Z,8.00
2023-12-29T03:02:35.618Z,8.00
2023-12-29T03:05:04.138Z,7.90
2023-12-29T03:07:31.171Z,7.90
2023-12-29T03:09:58.453Z,7.90
2023-12-29T03:12:25.571Z,7.90
2023-12-29T03:14:52.611Z,7.80
2023-12-29T03:17:19.686Z,7.80
2023-12-29T03:19:47.022Z,7.80
2023-12-29T03:22:17.197Z,7.80
2023-12-29T03:24:44.250Z,7.80
2023-12-29T03:27:11.604Z,7.90
2023-12-29T03:29:38.648Z,7.80
2023-12-29T03:32:06.211Z,7.80
2023-12-29T03:34:33.417Z,7.80
2023-12-29T03:37:00.642Z,7.70
2023-12-29T03:39:27.758Z,7.70
2023-12-29T03:41:54.959Z,7.70
2023-12-29T03:44:22.103Z,7.70
2023-12-29T03:46:50.619Z,7.70
2023-12-29T03:49:17.796Z,7.70
2023-12-29T03:51:45.085Z,7.70
2023-12-29T03:54:12.862Z,7.80
2023-12-29T03:56:40.030Z,7.80
2023-12-29T03:59:07.096Z,7.90
2023-12-29T04:01:35.894Z,7.90
2023-12-29T04:04:03.083Z,7.90
2023-12-29T04:06:30.820Z,8.00
2023-12-29T04:08:57.811Z,8.10
2023-12-29T04:11:24.890Z,8.20
2023-12-29T04:13:52.122Z,8.40
2023-12-29T04:16:21.159Z,8.50
2023-12-29T04:18:48.547Z,8.50
2023-12-29T04:21:16.351Z,8.60
2023-12-29T04:23:43.588Z,8.60
2023-12-29T04:26:11.089Z,8.50
2023-12-29T04:28:38.338Z,8.50
2023-12-29T04:31:05.759Z,8.60
2023-12-29T04:33:32.960Z,8.60
2023-12-29T04:36:00.568Z,8.60
2023-12-29T04:38:27.603Z,8.70
2023-12-29T04:40:54.687Z,8.70
2023-12-29T04:43:21.804Z,8.80
2023-12-29T04:45:49.173Z,8.90
2023-12-29T04:48:16.309Z,8.90
2023-12-29T04:50:43.493Z,8.90
2023-12-29T04:53:10.581Z,9.00
2023-12-29T04:55:37.994Z,9.00
2023-12-29T04:58:05.450Z,9.00
2023-12-29T05:00:32.813Z,9.00
2023-12-29T05:03:00.217Z,9.10
2023-12-29T05:05:27.564Z,9.10
2023-12-29T05:07:54.782Z,9.10
2023-12-29T05:10:22.295Z,9.10
2023-12-29T05:12:49.519Z,9.10
2023-12-29T05:15:16.737Z,9.10
2023-12-29T05:17:43.992Z,9.20
2023-12-29T05:20:12.049Z,9.20
2023-12-29T05:22:39.132Z,9.20
2023-12-29T05:25:10.069Z,9.20
2023-12-29T05:27:37.617Z,9.20
2023-12-29T05:30:36.948Z,9.20
2023-12-29T05:33:04.627Z,9.20
2023-12-29T05:35:31.954Z,9.30
2023-12-29T05:37:59.359Z,9.30
2023-12-29T05:40:29.745Z,9.30
2023-12-29T05:42:56.959Z,9.30
2023-12-29T05:45:24.029Z,9.30
2023-12-29T05:47:54.171Z,9.30
2023-12-29T05:50:21.391Z,9.20
2023-12-29T05:52:53.009Z,9.20
2023-12-29T05:55:20.816Z,9.20
2023-12-29T05:57:47.887Z,9.10
2023-12-29T06:00:15.748Z,9.20
2023-12-29T06:02:43.565Z,9.20
2023-12-29T06:05:22.964Z,9.20
2023-12-29T06:07:50.186Z,9.20
2023-12-29T06:10:19.896Z,9.20
2023-12-29T06:12:47.164Z,9.30
2023-12-29T06:15:17.326Z,9.30
2023-12-29T06:17:44.941Z,9.30
2023-12-29T06:20:12.953Z,9.30
2023-12-29T06:22:42.906Z,9.30
2023-12-29T06:25:13.841Z,9.30
2023-12-29T06:27:41.910Z,9.30
2023-12-29T06:30:11.052Z,9.30
2023-12-29T06:32:38.488Z,9.30
2023-12-29T06:35:06.309Z,9.30
2023-12-29T06:37:34.055Z,9.30
2023-12-29T06:40:01.378Z,9.20
2023-12-29T06:42:28.978Z,9.30
2023-12-29T06:44:56.185Z,9.20
2023-12-29T06:47:23.243Z,9.20
2023-12-29T06:49:51.274Z,9.20
2023-12-29T06:52:18.564Z,9.20
2023-12-29T06:54:45.886Z,9.20
2023-12-29T06:57:15.817Z,9.20
2023-12-29T06:59:43.187Z,9.20
2023-12-29T07:02:12.907Z,9.20
2023-12-29T07:04:44.027Z,9.20
2023-12-29T07:07:11.497Z,9.20
2023-12-29T07:09:42.002Z,9.20
2023-12-29T07:12:09.634Z,9.20
2023-12-29T07:14:37.041Z,9.20
2023-12-29T07:17:04.965Z,9.20
2023-12-29T07:19:38.597Z,9.20
2023-12-29T07:22:07.379Z,9.20
2023-12-29T07:24:52.428Z,9.20
2023-12-29T07:27:19.437Z,9.30
2023-12-29T07:29:46.699Z,9.30
2023-12-29T07:32:14.067Z,9.30
2023-12-29T07:34:41.312Z,9.40
2023-12-29T07:37:08.772Z,9.40
2023-12-29T07:39:38.491Z,9.50
2023-12-29T07:42:06.912Z,9.50
2023-12-29T07:44:34.166Z,9.40
2023-12-29T07:47:01.437Z,9.40
2023-12-29T07:49:29.090Z,9.40
2023-12-29T07:52:00.835Z,9.30
2023-12-29T07:54:27.955Z,9.40
2023-12-29T07:56:55.166Z,9.30
2023-12-29T07:59:22.549Z,9.30
2023-12-29T08:01:49.995Z,9.30
2023-12-29T08:04:17.472Z,9.30
2023-12-29T08:06:44.869Z,9.30
2023-12-29T08:09:12.210Z,9.30
2023-12-29T08:11:39.448Z,9.30
2023-12-29T08:14:07.939Z,9.40
2023-12-29T08:16:40.477Z,9.40
2023-12-29T08:19:08.305Z,9.40
2023-12-29T08:21:35.680Z,9.40
2023-12-29T08:24:03.329Z,9.40
2023-12-29T08:26:30.646Z,9.40
2023-12-29T08:28:57.810Z,9.40
2023-12-29T08:31:25.358Z,9.40
2023-12-29T08:33:52.654Z,9.40
2023-12-29T08:36:21.109Z,9.50
2023-12-29T08:38:48.227Z,9.50
2023-12-29T08:41:15.806Z,9.70
2023-12-29T08:43:43.036Z,9.70
2023-12-29T08:46:10.056Z,9.80
2023-12-29T08:48:37.873Z,9.80
2023-12-29T08:51:05.024Z,9.80
2023-12-29T08:53:35.412Z,9.80
2023-12-29T08:56:03.185Z,9.80
2023-12-29T08:58:31.170Z,9.90
2023-12-29T09:00:58.296Z,10.00
2023-12-29T09:03:25.469Z,10.10
2023-12-29T09:05:52.493Z,10.30
2023-12-29T09:08:19.496Z,10.50
2023-12-29T09:10:46.632Z,10.80
2023-12-29T09:13:13.823Z,10.90
2023-12-29T09:15:41.048Z,10.80
2023-12-29T09:18:08.219Z,10.70
2023-12-29T09:20:35.477Z,10.70
2023-12-29T09:23:04.705Z,10.70
2023-12-29T09:25:31.942Z,10.60
2023-12-29T09:27:59.259Z,10.60
2023-12-29T09:30:26.512Z,10.70
2023-12-29T09:32:53.684Z,10.70
2023-12-29T09:35:21.915Z,10.70
2023-12-29T09:37:52.709Z,10.70
2023-12-29T09:40:20.018Z,10.80
2023-12-29T09:42:48.478Z,10.70
2023-12-29T09:45:17.783Z,10.80
2023-12-29T09:47:45.091Z,10.80
2023-12-29T09:50:13.809Z,10.90
2023-12-29T09:52:41.766Z,10.90
2023-12-29T09:55:12.781Z,11.10
2023-12-29T09:57:40.300Z,11.30
2023-12-29T10:00:12.748Z,11.40
2023-12-29T10:02:40.244Z,11.50
2023-12-29T10:05:08.710Z,11.60
2023-12-29T10:07:39.777Z,11.70
2023-12-29T10:10:08.058Z,11.90
2023-12-29T10:12:38.376Z,12.00
2023-12-29T10:15:07.303Z,11.90
2023-12-29T10:18:07.126Z,11.90
2023-12-29T10:20:58.295Z,12.00
2023-12-29T10:23:36.650Z,12.10
2023-12-29T10:26:05.174Z,12.00
2023-12-29T10:28:33.483Z,11.90
2023-12-29T10:31:01.121Z,11.90
2023-12-29T10:33:30.710Z,11.80
2023-12-29T10:36:06.404Z,11.80
2023-12-29T10:38:33.857Z,11.70
2023-12-29T10:41:20.977Z,11.80
2023-12-29T10:43:48.838Z,11.90
2023-12-29T10:46:16.351Z,12.00
2023-12-29T10:48:43.991Z,12.10
2023-12-29T10:51:11.794Z,12.10
2023-12-29T10:53:41.572Z,12.00
2023-12-29T10:56:22.522Z,12.00
2023-12-29T10:59:00.753Z,12.00
2023-12-29T11:01:28.266Z,12.00
2023-12-29T11:04:10.673Z,12.00
2023-12-29T11:06:45.902Z,11.90
2023-12-29T11:09:13.186Z,12.00
2023-12-29T11:11:40.907Z,12.10
2023-12-29T11:14:13.238Z,12.00
2023-12-29T11:16:42.660Z,12.10
2023-12-29T11:19:14.658Z,12.20
2023-12-29T11:21:43.781Z,12.20
2023-12-29T11:24:13.220Z,12.30
2023-12-29T11:26:41.292Z,12.30
2023-12-29T11:29:09.737Z,12.40
2023-12-29T11:31:36.942Z,12.70
2023-12-29T11:34:13.560Z,12.90
2023-12-29T11:36:46.500Z,13.10
2023-12-29T11:39:21.649Z,13.40
2023-12-29T11:42:13.758Z,13.60
2023-12-29T11:44:40.815Z,13.50
2023-12-29T11:47:39.751Z,13.40
2023-12-29T11:50:07.182Z,13.50
2023-12-29T11:52:40.006Z,13.60
2023-12-29T11:55:19.182Z,13.80
2023-12-29T11:57:46.607Z,13.90
2023-12-29T12:00:13.900Z,14.20
2023-12-29T12:02:42.616Z,14.70
2023-12-29T12:05:12.732Z,15.10
2023-12-29T12:07:42.510Z,14.90
2023-12-29T12:10:24.877Z,14.90
2023-12-29T12:12:53.425Z,14.80
2023-12-29T12:15:30.374Z,14.80
2023-12-29T12:17:59.217Z,14.50
2023-12-29T12:20:26.948Z,14.00
2023-12-29T12:23:02.040Z,13.80
2023-12-29T12:25:31.232Z,13.70
2023-12-29T12:27:58.677Z,13.50
2023-12-29T12:30:25.640Z,13.60
2023-12-29T12:33:04.454Z,13.50
2023-12-29T12:35:32.162Z,13.40
2023-12-29T12:38:15.831Z,13.30
2023-12-29T12:40:42.797Z,13.00
2023-12-29T12:43:14.665Z,12.90
2023-12-29T12:45:48.174Z,12.80
2023-12-29T12:48:41.287Z,12.80
2023-12-29T12:51:08.414Z,12.80
2023-12-29T12:53:35.496Z,12.70
2023-12-29T12:56:04.347Z,12.50
2023-12-29T12:58:31.923Z,12.40
2023-12-29T13:01:00.390Z,12.30
2023-12-29T13:03:28.531Z,12.20
2023-12-29T13:05:57.931Z,12.20
2023-12-29T13:08:34.269Z,12.20
2023-12-29T13:11:05.476Z,12.20
2023-12-29T13:13:45.312Z,12.10
2023-12-29T13:16:14.353Z,12.10
2023-12-29T13:18:41.663Z,12.10
2023-12-29T13:21:10.359Z,12.00
2023-12-29T13:23:37.907Z,12.00
2023-12-29T13:26:09.073Z,11.90
2023-12-29T13:28:39.734Z,11.80
2023-12-29T13:31:12.126Z,11.80
2023-12-29T13:33:44.414Z,11.70
2023-12-29T13:36:25.216Z,11.60
2023-12-29T13:38:58.992Z,11.50
2023-12-29T13:41:29.356Z,11.50
2023-12-29T13:43:57.134Z,11.40
2023-12-29T13:46:24.552Z,11.30
2023-12-29T13:48:52.980Z,11.30
2023-12-29T13:51:25.339Z,11.30
2023-12-29T13:54:00.222Z,11.20
2023-12-29T13:56:27.619Z,11.20
2023-12-29T13:58:54.841Z,11.10
2023-12-29T14:01:22.077Z,11.10
2023-12-29T14:04:21.866Z,11.10
2023-12-29T14:07:01.538Z,11.00
2023-12-29T14:09:30.368Z,11.00
2023-12-29T14:11:57.926Z,11.00
2023-12-29T14:14:28.845Z,11.00
2023-12-29T14:16:56.215Z,10.90
2023-12-29T14:19:23.823Z,10.90
2023-12-29T14:21:57.186Z,10.90
2023-12-29T14:24:24.389Z,10.90
2023-12-29T14:26:55.396Z,10.80
2023-12-29T14:29:22.658Z,10.80
2023-12-29T14:31:52.818Z,10.70
2023-12-29T14:34:20.847Z,10.70
2023-12-29T14:36:48.274Z,10.60
2023-12-29T14:39:17.053Z,10.60
2023-12-29T14:41:46.877Z,10.60
2023-12-29T14:44:14.122Z,10.50
2023-12-29T14:46:41.588Z,10.50
2023-12-29T14:49:09.383Z,10.40
2023-12-29T14:51:36.887Z,10.40
2023-12-29T14:54:07.055Z,10.30
2023-12-29T14:56:34.174Z,10.30
2023-12-29T14:59:01.269Z,10.20
2023-12-29T15:01:29.042Z,10.20
2023-12-29T15:03:56.506Z,10.20
2023-12-29T15:06:24.365Z,10.20
2023-12-29T15:08:51.609Z,10.20
2023-12-29T15:11:19.622Z,10.10
2023-12-29T15:13:47.493Z,10.10
2023-12-29T15:16:15.053Z,10.10
2023-12-29T15:18:42.330Z,10.00
2023-12-29T15:21:09.562Z,10.00
2023-12-29T15:23:37.927Z,10.00
2023-12-29T15:26:05.146Z,9.90
2023-12-29T15:28:32.715Z,9.80
2023-12-29T15:31:00.281Z,9.90
2023-12-29T15:33:27.785Z,9.90
2023-12-29T15:35:55.239Z,9.90
2023-12-29T15:38:22.822Z,9.90
2023-12-29T15:40:50.159Z,9.90
2023-12-29T15:43:17.423Z,9.90
2023-12-29T15:45:47.566Z,9.90
2023-12-29T15:48:14.850Z,9.90
2023-12-29T15:50:42.283Z,9.90
2023-12-29T15:53:09.635Z,9.80
2023-12-29T15:55:36.850Z,9.80
2023-12-29T15:58:05.867Z,9.80
2023-12-29T16:00:34.475Z,9.80
2023-12-29T16:03:03.008Z,9.70
2023-12-29T16:05:30.516Z,9.70
2023-12-29T16:07:57.713Z,9.60
2023-12-29T16:10:27.864Z,9.60
2023-12-29T16:12:55.129Z,9.60
2023-12-29T16:15:22.435Z,9.50
2023-12-29T16:17:49.623Z,9.50
2023-12-29T16:20:17.505Z,9.50
2023-12-29T16:22:44.806Z,9.50
2023-12-29T16:25:12.081Z,9.50
2023-12-29T16:27:39.177Z,9.40
2023-12-29T16:30:08.277Z,9.40
2023-12-29T16:32:35.647Z,9.40
2023-12-29T16:35:06.717Z,9.30
2023-12-29T16:37:38.759Z,9.30
2023-12-29T16:40:07.406Z,9.20
2023-12-29T16:42:34.912Z,9.20
2023-12-29T16:45:02.179Z,9.30
2023-12-29T16:47:29.371Z,9.30
2023-12-29T16:49:56.595Z,9.40
2023-12-29T16:52:23.825Z,9.30
2023-12-29T16:54:51.531Z,9.30
2023-12-29T16:57:18.856Z,9.30
2023-12-29T16:59:46.013Z,9.30
2023-12-29T17:02:13.344Z,9.30
2023-12-29T17:04:46.524Z,9.30
2023-12-29T17:07:13.989Z,9.30
2023-12-29T17:09:41.548Z,9.20
2023-12-29T17:12:09.543Z,9.20
2023-12-29T17:14:42.419Z,9.10
2023-12-29T17:17:11.777Z,9.10
2023-12-29T17:19:39.069Z,9.00
2023-12-29T17:22:07.257Z,8.90
2023-12-29T17:24:40.282Z,8.90
2023-12-29T17:27:09.342Z,8.90
2023-12-29T17:29:36.551Z,8.80
2023-12-29T17:32:04.359Z,8.80
2023-12-29T17:34:33.715Z,8.80
2023-12-29T17:37:01.570Z,8.70
2023-12-29T17:39:28.620Z,8.70
2023-12-29T17:41:55.758Z,8.60
2023-12-29T17:44:22.780Z,8.60
2023-12-29T17:46:51.066Z,8.60
2023-12-29T17:49:19.636Z,8.60
2023-12-29T17:51:47.699Z,8.50
2023-12-29T17:54:14.881Z,8.50
2023-12-29T17:56:42.020Z,8.40
2023-12-29T17:59:09.816Z,8.40
2023-12-29T18:01:37.081Z,8.40
2023-12-29T18:04:04.646Z,8.40
2023-12-29T18:06:32.564Z,8.40
2023-12-29T18:09:01.255Z,8.40
2023-12-29T18:11:37.523Z,8.40
2023-12-29T18:14:05.078Z,8.40
2023-12-29T18:16:35.147Z,8.30
2023-12-29T18:19:02.694Z,8.30
2023-12-29T18:21:30.543Z,8.20
2023-12-29T18:23:57.939Z,8.20
2023-12-29T18:26:25.355Z,8.20
2023-12-29T18:28:52.690Z,8.20
2023-12-29T18:31:20.777Z,8.20
2023-12-29T18:33:48.660Z,8.30
2023-12-29T18:36:17.230Z,8.30
2023-12-29T18:38:44.393Z,8.30
2023-12-29T18:41:11.651Z,8.30
2023-12-29T18:43:39.323Z,8.40
2023-12-29T18:46:07.420Z,8.40
2023-12-29T18:48:35.105Z,8.30
2023-12-29T18:51:03.371Z,8.30
2023-12-29T18:53:31.565Z,8.20
2023-12-29T18:55:58.620Z,8.20
2023-12-29T18:58:25.891Z,8.20
2023-12-29T19:00:56.977Z,8.20
2023-12-29T19:03:24.254Z,8.20
2023-12-29T19:05:54.665Z,8.20
2023-12-29T19:08:21.815Z,8.10
2023-12-29T19:10:50.327Z,8.20
2023-12-29T19:13:20.171Z,8.10
2023-12-29T19:15:48.949Z,8.00
2023-12-29T19:18:16.020Z,8.00
2023-12-29T19:20:43.183Z,8.10
2023-12-29T19:23:10.333Z,8.10
2023-12-29T19:25:37.475Z,8.10
2023-12-29T19:28:05.487Z,8.10
2023-12-29T19:30:35.002Z,8.10
2023-12-29T19:33:02.525Z,8.00
2023-12-29T19:35:30.294Z,8.20
2023-12-29T19:37:57.586Z,8.40
2023-12-29T19:40:24.742Z,8.40
2023-12-29T19:43:01.197Z,8.50
2023-12-29T19:45:28.565Z,8.50
2023-12-29T19:47:55.929Z,8.50
2023-12-29T19:50:25.659Z,8.60
2023-12-29T19:52:53.819Z,8.60
2023-12-29T19:55:21.098Z,8.70
2023-12-29T19:57:48.780Z,8.70
2023-12-29T20:00:16.182Z,8.80
2023-12-29T20:02:43.900Z,8.90
2023-12-29T20:05:12.482Z,8.90
2023-12-29T20:07:40.116Z,9.00
2023-12-29T20:10:07.827Z,8.90
2023-12-29T20:12:35.115Z,8.90
2023-12-29T20:15:05.025Z,8.90
2023-12-29T20:17:32.243Z,8.90
2023-12-29T20:20:01.580Z,9.00
2023-12-29T20:22:28.963Z,8.90
2023-12-29T20:24:56.424Z,8.90
2023-12-29T20:27:26.112Z,8.90
2023-12-29T20:29:53.269Z,8.90
2023-12-29T20:32:21.074Z,8.90
2023-12-29T20:34:48.524Z,8.90
2023-12-29T20:37:16.153Z,8.90
2023-12-29T20:39:43.594Z,8.80
2023-12-29T20:42:10.796Z,8.80
2023-12-29T20:44:38.891Z,8.80
2023-12-29T20:47:06.311Z,8.80
2023-12-29T20:49:33.421Z,8.80
2023-12-29T20:52:00.820Z,8.80
2023-12-29T20:54:28.146Z,8.90
2023-12-29T20:56:57.804Z,8.90
2023-12-29T20:59:25.004Z,8.90
2023-12-29T21:01:52.455Z,8.90
2023-12-29T21:04:19.679Z,8.90
2023-12-29T21:06:46.790Z,8.90
2023-12-29T21:09:14.266Z,8.80
2023-12-29T21:11:43.527Z,8.90
2023-12-29T21:14:10.619Z,8.80
2023-12-29T21:16:37.702Z,8.80
2023-12-29T21:19:05.323Z,8.70
2023-12-29T21:21:40.835Z,8.70
2023-12-29T21:24:11.682Z,8.70
2023-12-29T21:26:38.793Z,8.70
2023-12-29T21:29:06.092Z,8.70
2023-12-29T21:31:35.587Z,8.70
2023-12-29T21:34:06.510Z,8.60
2023-12-29T21:36:33.727Z,8.70
2023-12-29T21:39:00.842Z,8.70
2023-12-29T21:41:28.792Z,8.70
2023-12-29T21:43:56.078Z,8.80
2023-12-29T21:46:23.158Z,8.80
2023-12-29T21:48:51.915Z,8.80
2023-12-29T21:51:25.445Z,8.80
2023-12-29T21:53:52.379Z,8.70
2023-12-29T21:56:19.704Z,8.70
2023-12-29T21:58:51.140Z,8.70
2023-12-29T22:01:39.210Z,8.70
2023-12-29T22:04:09.414Z,8.60
2023-12-29T22:06:39.035Z,8.60
2023-12-29T22:09:06.378Z,8.70
2023-12-29T22:11:33.764Z,8.80
2023-12-29T22:14:01.593Z,8.80
2023-12-29T22:16:29.038Z,8.80
2023-12-29T22:18:56.528Z,8.80
2023-12-29T22:21:23.704Z,8.70
2023-12-29T22:23:50.937Z,8.70
2023-12-29T22:26:19.453Z,8.60
2023-12-29T22:28:51.159Z,8.60
2023-12-29T22:31:20.587Z,8.60
2023-12-29T22:33:48.280Z,8.60
2023-12-29T22:36:17.621Z,8.60
2023-12-29T22:38:45.585Z,8.60
2023-12-29T22:41:18.181Z,8.70
2023-12-29T22:43:46.119Z,8.60
2023-12-29T22:46:21.299Z,8.60
2023-12-29T22:48:51.253Z,8.70
2023-12-29T22:51:18.552Z,8.70
2023-12-29T22:53:45.664Z,8.70
2023-12-29T22:56:13.130Z,8.70
2023-12-29T22:58:40.525Z,8.70
2023-12-29T23:01:07.869Z,8.70
2023-12-29T23:03:40.174Z,8.70
2023-12-29T23:06:07.866Z,8.70
2023-12-29T23:08:35.135Z,8.80
2023-12-29T23:11:02.417Z,8.80
2023-12-29T23:13:29.847Z,8.80
2023-12-29T23:15:57.895Z,8.70
2023-12-29T23:18:25.438Z,8.60
2023-12-29T23:20:52.573Z,8.60
2023-12-29T23:23:19.658Z,8.60
2023-12-29T23:25:49.332Z,8.50
2023-12-29T23:28:16.449Z,8.50
2023-12-29T23:30:43.739Z,8.60
2023-12-29T23:33:11.127Z,8.60
2023-12-29T23:35:38.781Z,8.60
2023-12-29T23:38:06.153Z,8.60
2023-12-29T23:40:33.488Z,8.60
2023-12-29T23:43:01.082Z,8.60
2023-12-29T23:45:29.349Z,8.60
2023-12-29T23:47:56.505Z,8.60
2023-12-29T23:50:23.502Z,8.60
2023-12-29T23:52:50.939Z,8.70
2023-12-29T23:55:24.224Z,8.80
2023-12-29T23:57:51.664Z,8.90
